Time;durP1;ratioP1;P1;durP2;ratioP2;P2;SDS_P1;SDS_P2;PMS_P1;PMS_P2;Temp;Humidity;BMP_temperature;BMP_pressure;BME280_temperature;BME280_humidity;BME280_pressure;Samples;Min_cycle;Max_cycle;Signal;HPM_P1;HPM_P2
2023/10/04 00:02:09;;;;;;;5.03;3.73;;;16.70;99.90;;;;;;4943043;28;20511;-91
2023/10/04 00:05:14;;;;;;;;;;;;;;;;;;;;;
2023/10/04 00:07:46;;;;;;;6.43;2.63;;;16.70;99.90;;;;;;4971521;28;21354;-85
2023/10/04 00:10:16;;;;;;;3.67;2.90;;;16.70;99.90;;;;;;4974183;28;20471;-86
2023/10/04 00:12:46;;;;;;;3.67;2.90;;;16.60;99.90;;;;;;4956820;28;20475;-84
2023/10/04 00:15:20;;;;;;;3.77;2.37;;;16.60;99.90;;;;;;4956871;28;20813;-85
2023/10/04 00:18:11;;;;;;;;;;;;;;;;;;;;;
2023/10/04 00:20:49;;;;;;;4.97;2.63;;;16.60;99.90;;;;;;4946527;28;20520;-87
2023/10/04 00:23:21;;;;;;;8.40;3.00;;;16.50;99.90;;;;;;4949899;28;20502;-86
2023/10/04 00:25:54;;;;;;;3.70;2.70;;;16.60;99.90;;;;;;4967672;28;20878;-86
2023/10/04 00:28:24;;;;;;;3.73;2.53;;;16.50;99.90;;;;;;4964870;28;20464;-86
2023/10/04 00:30:54;;;;;;;3.93;2.43;;;16.50;99.90;;;;;;4959173;28;20476;-86
2023/10/04 00:33:22;;;;;;;2.77;2.30;;;16.50;99.90;;;;;;4970806;28;20531;-87
2023/10/04 00:35:54;;;;;;;6.17;2.60;;;16.50;99.90;;;;;;4972578;28;20490;-87
2023/10/04 00:38:26;;;;;;;9.23;3.70;;;16.50;99.90;;;;;;4952699;28;20511;-86
2023/10/04 00:40:53;;;;;;;3.60;2.63;;;16.40;99.90;;;;;;4976003;28;20534;-86
2023/10/04 00:43:23;;;;;;;5.43;2.97;;;16.40;99.90;;;;;;4965684;28;20480;-85
2023/10/04 00:45:53;;;;;;;5.83;2.80;;;16.40;99.90;;;;;;4974916;28;20978;-87
2023/10/04 00:48:34;;;;;;;5.47;2.40;;;16.40;99.90;;;;;;4973628;28;20499;-86
2023/10/04 00:51:10;;;;;;;3.50;2.20;;;16.40;99.90;;;;;;4973714;28;20977;-88
2023/10/04 00:53:42;;;;;;;5.20;2.97;;;16.40;99.90;;;;;;4978001;28;20494;-88
2023/10/04 00:56:16;;;;;;;4.40;2.27;;;16.30;99.90;;;;;;4994985;28;20467;-87
2023/10/04 00:58:59;;;;;;;6.43;3.30;;;16.20;99.90;;;;;;4980769;28;20482;-88
2023/10/04 01:01:31;;;;;;;4.73;2.60;;;16.20;99.90;;;;;;4967722;28;20534;-88
2023/10/04 01:04:05;;;;;;;3.70;2.30;;;16.20;99.90;;;;;;4977180;28;20467;-88
2023/10/04 01:06:35;;;;;;;7.20;2.50;;;16.20;99.90;;;;;;4968125;28;20462;-86
2023/10/04 01:09:26;;;;;;;3.70;2.13;;;16.20;99.90;;;;;;4967427;28;20462;-89
2023/10/04 01:11:57;;;;;;;11.70;4.00;;;16.10;99.90;;;;;;4967164;28;20534;-87
2023/10/04 01:14:47;;;;;;;;;;;;;;;;;;;;;
2023/10/04 01:17:51;;;;;;;4.60;2.17;;;16.10;99.90;;;;;;4955753;28;20483;-85
2023/10/04 01:20:49;;;;;;;5.33;2.43;;;16.10;99.90;;;;;;4937788;28;20490;-90
2023/10/04 01:24:09;;;;;;;4.33;2.47;;;16.00;99.90;;;;;;4932860;28;20830;-89
2023/10/04 01:27:03;;;;;;;;;;;;;;;;;;;;;
2023/10/04 01:29:38;;;;;;;3.53;1.80;;;15.90;99.90;;;;;;4939726;28;20602;-89
2023/10/04 01:32:19;;;;;;;3.67;2.27;;;15.90;99.90;;;;;;4950222;28;20474;-84
2023/10/04 01:34:46;;;;;;;4.80;2.40;;;15.90;99.90;;;;;;4960576;28;20815;-84
2023/10/04 01:37:48;;;;;;;5.97;3.93;;;15.90;99.90;;;;;;4971752;28;20486;-84
2023/10/04 01:43:33;;;;;;;8.97;2.90;;;15.80;99.90;;;;;;4965006;28;20486;-87
2023/10/04 01:46:30;;;;;;;4.70;3.00;;;15.80;99.90;;;;;;4971822;28;20471;-85
2023/10/04 01:49:07;;;;;;;7.87;2.60;;;15.80;99.90;;;;;;4950336;28;20510;-85
2023/10/04 01:54:17;;;;;;;5.67;2.20;;;15.80;99.90;;;;;;4983104;28;20989;-86
2023/10/04 01:56:46;;;;;;;4.73;2.60;;;15.80;99.90;;;;;;4973735;28;20474;-86
2023/10/04 01:59:17;;;;;;;4.00;2.50;;;15.80;99.90;;;;;;4974122;28;20570;-85
2023/10/04 02:01:47;;;;;;;6.53;2.60;;;15.80;99.90;;;;;;4973661;28;20563;-89
2023/10/04 02:04:51;;;;;;;;;;;;;;;;;;;;;
2023/10/04 02:07:23;;;;;;;7.27;2.87;;;15.80;99.90;;;;;;4964072;28;20551;-89
2023/10/04 02:09:54;;;;;;;131.73;97.23;;;15.80;99.90;;;;;;4962650;28;20463;-85
2023/10/04 02:12:23;;;;;;;6.37;4.10;;;16.00;99.90;;;;;;4962139;28;20471;-89
2023/10/04 02:14:53;;;;;;;4.53;3.70;;;16.10;99.90;;;;;;4975130;28;20484;-90
2023/10/04 02:17:22;;;;;;;6.37;2.80;;;16.20;99.90;;;;;;4977847;28;20471;-90
2023/10/04 02:19:49;;;;;;;3.40;3.10;;;16.20;99.90;;;;;;4978194;28;20530;-85
2023/10/04 02:22:18;;;;;;;3.40;2.23;;;16.10;99.90;;;;;;4978435;28;20458;-88
2023/10/04 02:24:45;;;;;;;4.00;2.80;;;16.10;99.90;;;;;;4968871;28;20493;-84
2023/10/04 02:27:18;;;;;;;3.77;2.10;;;16.10;99.90;;;;;;4968931;28;20486;-84
2023/10/04 02:29:51;;;;;;;3.30;2.40;;;16.10;99.90;;;;;;4957371;28;20557;-84
2023/10/04 02:32:20;;;;;;;5.60;2.87;;;16.00;99.90;;;;;;4958795;28;20594;-89
2023/10/04 02:34:47;;;;;;;5.70;2.30;;;16.00;99.90;;;;;;4968434;28;20486;-87
2023/10/04 02:37:23;;;;;;;5.70;2.87;;;15.90;99.90;;;;;;4977542;28;20482;-89
2023/10/04 02:39:57;;;;;;;4.37;2.30;;;15.90;99.90;;;;;;4978325;28;20485;-84
2023/10/04 02:42:36;;;;;;;7.63;2.87;;;15.80;99.90;;;;;;4967738;28;20593;-89
2023/10/04 02:45:12;;;;;;;3.90;2.23;;;15.80;99.90;;;;;;4961608;28;20482;-89
2023/10/04 02:47:39;;;;;;;5.60;2.97;;;15.80;99.90;;;;;;4967813;28;20455;-89
2023/10/04 02:50:10;;;;;;;3.17;2.30;;;15.80;99.90;;;;;;4977169;28;20478;-89
2023/10/04 02:52:37;;;;;;;4.63;2.67;;;15.80;99.90;;;;;;4967636;28;20471;-89
2023/10/04 02:55:15;;;;;;;8.37;3.20;;;15.80;99.90;;;;;;4976784;28;20546;-89
2023/10/04 02:57:46;;;;;;;5.87;2.70;;;15.80;99.90;;;;;;4976958;28;20466;-88
2023/10/04 03:00:21;;;;;;;4.63;2.93;;;15.80;99.90;;;;;;4977106;28;20480;-84
2023/10/04 03:02:50;;;;;;;4.97;2.87;;;15.80;99.90;;;;;;4977431;28;20474;-84
2023/10/04 03:05:40;;;;;;;5.10;2.50;;;15.80;99.90;;;;;;4977413;28;20474;-88
2023/10/04 03:08:08;;;;;;;6.03;3.20;;;15.80;99.90;;;;;;4977446;28;20848;-85
2023/10/04 03:10:50;;;;;;;5.37;3.33;;;15.80;99.90;;;;;;4977163;28;20467;-84
2023/10/04 03:13:22;;;;;;;4.00;3.07;;;15.80;99.90;;;;;;4967809;28;20471;-88
2023/10/04 03:15:57;;;;;;;8.20;3.60;;;15.80;99.90;;;;;;4986900;28;20972;-89
2023/10/04 03:18:25;;;;;;;3.50;2.43;;;15.70;99.90;;;;;;4992595;28;20468;-88
2023/10/04 03:21:08;;;;;;;4.83;2.70;;;15.70;99.90;;;;;;4977517;28;20529;-85
2023/10/04 03:23:40;;;;;;;4.00;2.93;;;15.70;99.90;;;;;;4965226;28;20539;-85
2023/10/04 03:26:12;;;;;;;4.57;2.87;;;15.70;99.90;;;;;;4956476;28;20472;-85
2023/10/04 03:28:39;;;;;;;4.03;3.53;;;15.70;99.90;;;;;;4975700;28;20486;-84
2023/10/04 03:31:12;;;;;;;4.60;3.50;;;15.70;99.90;;;;;;4976980;28;20471;-88
2023/10/04 03:33:39;;;;;;;9.83;3.70;;;15.70;99.90;;;;;;4966686;28;20486;-85
2023/10/04 03:36:14;;;;;;;4.33;3.57;;;15.70;99.90;;;;;;4966482;28;20540;-84
2023/10/04 03:38:51;;;;;;;5.63;3.73;;;15.70;99.90;;;;;;4975438;28;20474;-85
2023/10/04 03:41:19;;;;;;;4.40;3.77;;;15.70;99.90;;;;;;4966403;28;20492;-85
2023/10/04 03:43:46;;;;;;;5.60;4.27;;;15.70;99.90;;;;;;4975672;28;20467;-84
2023/10/04 03:46:18;;;;;;;5.90;3.80;;;15.70;99.90;;;;;;4975881;28;20489;-85
2023/10/04 03:48:45;;;;;;;5.17;4.67;;;15.70;99.90;;;;;;4975270;28;20501;-85
2023/10/04 03:51:19;;;;;;;4.67;4.13;;;15.60;99.90;;;;;;4976201;28;20466;-88
2023/10/04 03:53:46;;;;;;;8.03;4.47;;;15.60;99.90;;;;;;4964945;28;20530;-85
2023/10/04 03:56:17;;;;;;;4.43;4.03;;;15.60;99.90;;;;;;4966096;28;20470;-89
2023/10/04 03:58:48;;;;;;;6.93;4.13;;;15.60;99.90;;;;;;4975745;28;20463;-89
2023/10/04 04:01:20;;;;;;;7.30;5.60;;;15.60;99.90;;;;;;4976413;28;20475;-85
2023/10/04 04:03:49;;;;;;;4.80;4.37;;;15.60;99.90;;;;;;4966181;28;20554;-85
2023/10/04 04:06:19;;;;;;;4.43;4.03;;;15.60;99.90;;;;;;4974561;28;20525;-85
2023/10/04 04:08:46;;;;;;;6.77;5.10;;;15.60;99.90;;;;;;4966880;28;20474;-89
2023/10/04 04:11:18;;;;;;;7.70;5.53;;;15.60;99.90;;;;;;4967796;28;20475;-88
2023/10/04 04:13:46;;;;;;;6.53;4.43;;;15.50;99.90;;;;;;4966029;28;20493;-89
2023/10/04 04:16:17;;;;;;;6.80;4.87;;;15.50;99.90;;;;;;4966180;28;20471;-89
2023/10/04 04:18:52;;;;;;;4.97;4.20;;;15.50;99.90;;;;;;4975066;28;20471;-85
2023/10/04 04:21:21;;;;;;;4.90;4.40;;;15.50;99.90;;;;;;4965958;28;20558;-85
2023/10/04 04:23:51;;;;;;;5.47;4.70;;;15.50;99.90;;;;;;4974827;28;20796;-89
2023/10/04 04:26:23;;;;;;;6.20;4.77;;;15.50;99.90;;;;;;4975118;28;20479;-88
2023/10/04 04:28:52;;;;;;;4.23;3.83;;;15.50;99.90;;;;;;4976211;28;20558;-88
2023/10/04 04:31:22;;;;;;;8.80;4.43;;;15.50;99.90;;;;;;4958190;28;20486;-84
2023/10/04 04:36:34;;;;;;;7.47;5.17;;;15.60;99.90;;;;;;5589554;23;20519;-86
2023/10/04 04:39:11;;;;;;;;;;;;;;;;;;;;;
2023/10/04 04:41:48;;;;;;;4.97;3.60;;;15.60;99.90;;;;;;5013908;28;20457;-90
2023/10/04 04:44:20;;;;;;;7.30;4.33;;;15.60;99.90;;;;;;5015621;28;20895;-85
2023/10/04 04:46:51;;;;;;;5.80;3.67;;;15.50;99.90;;;;;;5004546;28;20471;-90
2023/10/04 04:49:19;;;;;;;5.13;4.10;;;15.60;99.90;;;;;;5015819;28;20469;-90
2023/10/04 04:51:53;;;;;;;7.37;4.37;;;15.50;99.90;;;;;;5015126;28;20554;-90
2023/10/04 04:54:23;;;;;;;5.40;4.30;;;15.50;99.90;;;;;;5006637;28;20500;-90
2023/10/04 04:57:05;;;;;;;5.43;3.57;;;15.50;99.90;;;;;;5005567;28;20469;-89
2023/10/04 04:59:42;;;;;;;4.83;3.43;;;15.50;99.90;;;;;;5014788;28;20503;-90
2023/10/04 05:02:10;;;;;;;5.07;3.70;;;15.50;99.90;;;;;;5007385;28;20496;-90
2023/10/04 05:04:37;;;;;;;7.53;3.60;;;15.50;99.90;;;;;;5015413;28;20465;-90
2023/10/04 05:07:12;;;;;;;6.50;4.37;;;15.50;99.90;;;;;;5015874;28;20501;-85
2023/10/04 05:09:41;;;;;;;8.17;4.30;;;15.50;99.90;;;;;;5012999;28;20464;-86
2023/10/04 05:12:13;;;;;;;4.80;4.17;;;15.50;99.90;;;;;;5005825;28;20468;-89
2023/10/04 05:14:45;;;;;;;5.43;3.57;;;15.50;99.90;;;;;;4997553;28;20491;-85
2023/10/04 05:17:15;;;;;;;5.50;3.67;;;15.40;99.90;;;;;;5020229;28;20565;-90
2023/10/04 05:19:45;;;;;;;7.60;5.10;;;15.50;99.90;;;;;;5011712;28;20473;-86
2023/10/04 05:22:16;;;;;;;5.80;4.40;;;15.50;99.90;;;;;;5013253;28;20523;-85
2023/10/04 05:24:43;;;;;;;5.80;3.47;;;15.50;99.90;;;;;;5015936;28;20812;-90
2023/10/04 05:27:18;;;;;;;5.87;3.73;;;15.50;99.90;;;;;;5015130;28;20565;-89
2023/10/04 05:29:48;;;;;;;10.30;4.50;;;15.50;99.90;;;;;;5017028;28;20487;-86
2023/10/04 05:32:15;;;;;;;5.43;3.80;;;15.50;99.90;;;;;;5012913;28;20469;-89
2023/10/04 05:34:56;;;;;;;5.10;3.60;;;15.50;99.90;;;;;;5030237;28;20477;-89
2023/10/04 05:37:44;;;;;;;6.00;3.20;;;15.50;99.90;;;;;;5002027;28;20477;-84
2023/10/04 05:40:29;;;;;;;8.50;3.90;;;15.50;99.90;;;;;;5011465;28;20866;-84
2023/10/04 05:43:00;;;;;;;6.23;3.57;;;15.50;99.90;;;;;;5016443;28;20904;-89
2023/10/04 05:48:11;;;;;;;4.37;3.33;;;15.40;99.90;;;;;;4998278;28;20527;-85
2023/10/04 05:50:42;;;;;;;4.80;2.87;;;15.50;99.90;;;;;;5012972;28;20468;-85
2023/10/04 05:53:22;;;;;;;8.23;3.40;;;15.50;99.90;;;;;;5019441;28;20541;-89
2023/10/04 05:56:00;;;;;;;7.07;2.97;;;15.50;99.90;;;;;;5034127;28;20453;-89
2023/10/04 05:58:27;;;;;;;5.77;3.90;;;15.50;99.90;;;;;;5034285;28;20441;-89
2023/10/04 06:00:56;;;;;;;7.17;3.80;;;15.50;99.90;;;;;;5028387;28;20476;-89
2023/10/04 06:03:23;;;;;;;9.63;3.53;;;15.50;99.90;;;;;;5005663;28;20469;-91
2023/10/04 06:05:53;;;;;;;4.20;3.30;;;15.50;99.90;;;;;;5020576;28;20465;-89
2023/10/04 06:08:24;;;;;;;4.27;2.87;;;15.50;99.90;;;;;;5029450;28;20472;-88
2023/10/04 06:10:53;;;;;;;7.40;3.43;;;15.50;99.90;;;;;;5024902;28;20520;-89
2023/10/04 06:13:25;;;;;;;5.80;3.70;;;15.50;99.90;;;;;;5013226;28;20995;-89
2023/10/04 06:15:56;;;;;;;6.77;3.10;;;15.50;99.90;;;;;;5013398;28;20492;-89
2023/10/04 06:18:41;;;;;;;5.63;3.20;;;15.50;99.90;;;;;;5014595;28;20676;-85
2023/10/04 06:24:39;;;;;;;3.60;3.10;;;15.60;99.90;;;;;;4996054;28;20500;-89
2023/10/04 06:27:11;;;;;;;5.90;3.17;;;15.60;99.90;;;;;;5012801;28;20971;-85
2023/10/04 06:33:09;;;;;;;6.13;3.03;;;15.60;99.90;;;;;;5010230;28;20576;-90
2023/10/04 06:35:48;;;;;;;4.87;2.93;;;15.70;99.90;;;;;;5015380;28;20531;-90
2023/10/04 06:38:29;;;;;;;5.20;3.17;;;15.70;99.90;;;;;;5000382;28;20551;-85
2023/10/04 06:41:31;;;;;;;3.87;3.03;;;15.80;99.90;;;;;;4995563;28;20484;-88
2023/10/04 07:00:36;;;;;;;5.00;3.10;;;15.90;99.90;;;;;;4963134;28;20552;-89
2023/10/04 07:03:14;;;;;;;7.87;3.73;;;16.00;99.90;;;;;;4986203;28;20568;-90
2023/10/04 07:05:58;;;;;;;4.33;3.33;;;16.00;99.90;;;;;;4989507;28;20904;-90
2023/10/04 07:26:55;;;;;;;7.27;4.20;;;16.40;99.90;;;;;;5549200;22;20805;-84
2023/10/04 07:30:26;;;;;;;5.00;2.80;;;16.40;99.90;;;;;;5049946;28;20524;-85
2023/10/04 09:09:11;;;;;;;4.90;3.13;;;17.70;99.90;;;;;;4815636;29;20481;-90
2023/10/04 09:11:48;;;;;;;4.23;2.90;;;17.70;99.90;;;;;;4881348;29;20542;-84
2023/10/04 09:14:40;;;;;;;6.47;3.20;;;17.70;99.90;;;;;;4883200;29;20502;-90
2023/10/04 09:17:14;;;;;;;6.80;3.13;;;17.80;99.90;;;;;;4909996;29;20480;-90
2023/10/04 09:19:47;;;;;;;4.80;2.60;;;17.90;99.90;;;;;;4934324;29;20467;-90
2023/10/04 09:22:20;;;;;;;9.17;3.63;;;17.90;99.90;;;;;;4928643;29;20536;-85
2023/10/04 09:25:18;;;;;;;7.10;2.60;;;17.90;99.90;;;;;;4938756;28;20469;-85
2023/10/04 09:27:56;;;;;;;5.43;3.00;;;18.00;99.90;;;;;;4938962;29;20477;-89
2023/10/04 09:30:42;;;;;;;6.50;3.23;;;18.00;99.90;;;;;;4986190;28;20481;-89
2023/10/04 09:36:46;;;;;;;4.93;3.53;;;18.00;99.90;;;;;;5000439;28;20589;-90
2023/10/04 09:39:16;;;;;;;4.23;2.27;;;18.10;99.90;;;;;;5016576;28;20469;-89
2023/10/04 09:41:55;;;;;;;4.73;2.47;;;18.10;99.90;;;;;;5020346;28;20464;-86
2023/10/04 09:45:07;;;;;;;8.30;3.73;;;18.20;99.90;;;;;;5010425;28;20495;-86
2023/10/04 09:47:53;;;;;;;4.87;3.00;;;18.10;99.90;;;;;;5013026;28;20460;-90
2023/10/04 09:50:33;;;;;;;3.93;2.60;;;18.20;99.90;;;;;;5005900;28;21033;-85
2023/10/04 09:53:07;;;;;;;4.67;2.50;;;18.30;99.90;;;;;;4996607;28;20838;-85
2023/10/04 09:55:37;;;;;;;12.37;3.57;;;18.20;99.90;;;;;;5016877;28;20485;-90
2023/10/04 09:58:13;;;;;;;8.13;2.90;;;18.20;99.90;;;;;;5004868;28;20515;-85
2023/10/04 10:00:47;;;;;;;7.00;3.20;;;18.20;99.90;;;;;;5015329;28;20468;-90
2023/10/04 10:03:26;;;;;;;6.03;2.83;;;18.20;99.90;;;;;;5020633;28;20815;-90
2023/10/04 10:06:19;;;;;;;5.73;3.30;;;18.30;99.90;;;;;;5011043;28;20476;-87
2023/10/04 10:09:35;;;;;;;11.33;2.83;;;18.30;99.90;;;;;;4998200;28;21013;-89
2023/10/04 10:12:12;;;;;;;7.80;2.10;;;18.30;99.90;;;;;;5000221;28;20962;-85
2023/10/04 10:14:43;;;;;;;3.80;2.60;;;18.40;99.90;;;;;;5004942;28;20477;-84
2023/10/04 10:17:34;;;;;;;3.93;2.47;;;18.40;99.90;;;;;;5008879;28;20516;-85
2023/10/04 10:26:45;;;;;;;6.23;3.73;;;18.40;99.90;;;;;;4944666;28;20464;-90
2023/10/04 10:29:25;;;;;;;5.70;3.83;;;18.30;99.90;;;;;;5018790;28;20470;-90
2023/10/04 10:32:11;;;;;;;5.23;4.07;;;18.30;99.90;;;;;;4987972;28;20954;-85
2023/10/04 10:34:40;;;;;;;3.57;3.00;;;18.30;99.90;;;;;;4997095;28;20880;-85
2023/10/04 10:37:26;;;;;;;4.77;3.60;;;18.40;99.90;;;;;;5001619;28;20924;-90
2023/10/04 10:40:34;;;;;;;3.60;3.30;;;18.40;99.90;;;;;;4999328;28;20465;-89
2023/10/04 10:46:39;;;;;;;;;;;;;;;;;;;;;
2023/10/04 10:53:10;;;;;;;5.37;2.70;;;18.50;99.90;;;;;;4968900;28;20500;-86
2023/10/04 10:55:38;;;;;;;4.97;2.90;;;18.50;99.90;;;;;;4973098;28;20656;-85
2023/10/04 10:58:08;;;;;;;4.13;3.27;;;18.40;99.90;;;;;;4998434;28;20476;-86
2023/10/04 11:00:47;;;;;;;;;;;;;;;;;;;;;
2023/10/04 11:03:29;;;;;;;3.50;3.20;;;18.40;99.90;;;;;;4990284;28;20491;-86
2023/10/04 11:06:02;;;;;;;4.47;2.50;;;18.40;99.90;;;;;;4993606;28;20481;-84
2023/10/04 11:08:34;;;;;;;6.27;3.90;;;18.40;99.90;;;;;;4998010;28;20481;-89
2023/10/04 11:11:21;;;;;;;4.53;2.10;;;18.50;99.90;;;;;;4989935;28;20476;-88
2023/10/04 11:13:51;;;;;;;4.70;3.30;;;18.50;99.90;;;;;;5025660;28;20486;-90
2023/10/04 11:16:33;;;;;;;4.20;2.63;;;18.60;99.90;;;;;;4997896;28;20477;-89
2023/10/04 11:19:05;;;;;;;5.77;2.97;;;18.60;99.90;;;;;;4984058;28;20481;-90
2023/10/04 11:26:00;;;;;;;3.00;2.63;;;18.70;99.90;;;;;;4882182;29;20579;-89
2023/10/04 11:29:04;;;;;;;3.13;2.57;;;18.70;99.90;;;;;;4993717;28;20539;-85
2023/10/04 11:31:58;;;;;;;5.53;3.00;;;18.60;99.90;;;;;;4988535;28;20565;-89
2023/10/04 11:44:55;;;;;;;5.33;2.90;;;18.60;99.90;;;;;;4941128;28;20473;-85
2023/10/04 11:48:07;;;;;;;3.50;2.47;;;18.70;99.90;;;;;;4923592;28;20827;-85
2023/10/04 11:51:53;;;;;;;;;;;;;;;;;;;;;
2023/10/04 12:04:17;;;;;;;3.83;2.03;;;18.70;99.90;;;;;;4845479;29;20468;-84
2023/10/04 12:07:29;;;;;;;;;;;;;;;;;;;;;
2023/10/04 12:13:54;;;;;;;5.73;3.23;;;18.70;99.90;;;;;;4933242;29;20468;-84
2023/10/04 12:17:13;;;;;;;4.60;3.30;;;18.70;99.90;;;;;;4971816;28;20485;-84
2023/10/04 12:24:04;;;;;;;5.67;3.30;;;18.70;99.90;;;;;;4965524;28;20498;-90
2023/10/04 12:27:24;;;;;;;7.40;3.20;;;18.70;99.90;;;;;;4868654;29;20478;-90
2023/10/04 12:40:17;;;;;;;8.10;3.57;;;18.70;99.90;;;;;;4985236;28;20465;-89
2023/10/04 12:43:16;;;;;;;4.43;3.20;;;18.70;99.90;;;;;;5025858;28;20469;-89
2023/10/04 12:46:15;;;;;;;3.93;3.03;;;18.60;99.90;;;;;;5015273;28;20480;-84
2023/10/04 12:48:58;;;;;;;3.07;2.70;;;18.60;99.90;;;;;;5017904;28;20485;-84
2023/10/04 13:01:35;;;;;;;;;;;;;;;;;;;;;
2023/10/04 13:04:10;;;;;;;5.43;3.27;;;18.60;99.90;;;;;;4930327;28;20484;-89
2023/10/04 13:07:10;;;;;;;4.77;3.23;;;18.60;99.90;;;;;;4999523;28;20555;-84
2023/10/04 13:09:49;;;;;;;6.00;3.03;;;18.50;99.90;;;;;;4992982;28;20473;-84
2023/10/04 13:28:32;;;;;;;4.10;3.00;;;18.70;99.90;;;;;;4864127;29;20486;-85
2023/10/04 13:31:43;;;;;;;6.10;3.30;;;18.70;99.90;;;;;;4868785;29;20555;-89
2023/10/04 13:34:22;;;;;;;4.27;2.90;;;18.70;99.90;;;;;;4882343;29;20543;-89
2023/10/04 13:37:04;;;;;;;5.30;3.60;;;18.80;99.90;;;;;;4922327;28;20511;-84
2023/10/04 13:40:19;;;;;;;4.83;3.47;;;18.80;99.90;;;;;;4972444;28;20539;-85
2023/10/04 13:43:12;;;;;;;5.20;3.30;;;18.80;99.90;;;;;;4985432;28;20469;-85
2023/10/04 13:45:41;;;;;;;5.40;3.43;;;18.80;99.90;;;;;;4995070;23;20462;-90
2023/10/04 13:48:19;;;;;;;3.63;2.83;;;18.80;99.90;;;;;;4984180;28;20474;-90
2023/10/04 13:50:53;;;;;;;6.37;2.83;;;18.80;99.90;;;;;;4987741;28;20481;-90
2023/10/04 14:00:11;;;;;;;;;;;;;;;;;;;;;
2023/10/04 14:02:58;;;;;;;6.43;2.87;;;18.90;99.90;;;;;;4932821;29;20475;-84
2023/10/04 14:05:41;;;;;;;6.40;3.53;;;19.00;99.90;;;;;;4944221;28;20559;-84
2023/10/04 14:11:49;;;;;;;3.80;2.80;;;19.10;99.90;;;;;;4934193;28;20558;-87
2023/10/04 14:14:27;;;;;;;6.43;3.50;;;19.20;99.90;;;;;;4985086;28;20511;-87
2023/10/04 14:17:51;;;;;;;4.90;3.50;;;19.20;99.90;;;;;;5001005;28;20461;-87
2023/10/04 14:20:23;;;;;;;10.03;3.77;;;19.30;99.90;;;;;;4995884;28;20561;-84
2023/10/04 14:23:25;;;;;;;5.90;3.50;;;19.40;99.90;;;;;;4983402;28;20981;-85
2023/10/04 14:29:28;;;;;;;7.30;4.40;;;19.50;99.90;;;;;;4905430;29;20487;-88
2023/10/04 15:03:53;;;;;;;5.50;4.30;;;19.30;99.90;;;;;;4822077;29;20571;-85
2023/10/04 15:06:29;;;;;;;4.03;3.43;;;19.30;99.90;;;;;;4948016;28;20991;-85
2023/10/04 15:08:59;;;;;;;6.37;3.90;;;19.20;99.90;;;;;;4950796;28;20481;-85
2023/10/04 15:11:30;;;;;;;7.40;4.03;;;19.20;99.90;;;;;;4984618;28;20868;-84
2023/10/04 15:13:57;;;;;;;4.77;3.50;;;19.20;99.90;;;;;;4957672;28;20468;-84
2023/10/04 15:16:25;;;;;;;5.23;4.50;;;19.20;99.90;;;;;;4960043;28;20475;-84
2023/10/04 15:18:55;;;;;;;6.03;3.53;;;19.10;99.90;;;;;;4976524;28;20493;-83
2023/10/04 15:21:26;;;;;;;5.60;3.57;;;19.10;99.90;;;;;;4972978;28;20467;-83
2023/10/04 15:27:33;;;;;;;5.70;4.20;;;19.10;99.90;;;;;;4941714;28;20543;-90
2023/10/04 15:33:43;;;;;;;;;;;;;;;;;;;;;
2023/10/04 15:36:59;;;;;;;6.17;5.50;;;19.00;99.90;;;;;;4873932;29;20490;-85
2023/10/04 15:43:17;;;;;;;7.07;6.07;;;18.90;99.90;;;;;;4862063;29;20471;-90
2023/10/04 15:46:15;;;;;;;5.70;4.50;;;18.90;99.90;;;;;;4919839;28;20471;-89
2023/10/04 15:48:50;;;;;;;6.70;4.17;;;18.90;99.90;;;;;;4971082;28;20486;-84
2023/10/04 15:51:18;;;;;;;6.47;4.20;;;18.80;99.90;;;;;;4980722;28;20987;-92
2023/10/04 15:54:16;;;;;;;6.00;4.50;;;18.80;99.90;;;;;;4989087;28;20482;-89
2023/10/04 15:59:54;;;;;;;5.17;4.07;;;18.80;99.90;;;;;;4916027;29;20489;-89
2023/10/04 16:02:22;;;;;;;6.40;3.90;;;18.70;99.90;;;;;;4985329;28;20466;-91
2023/10/04 16:05:10;;;;;;;5.20;3.33;;;18.70;99.90;;;;;;4971455;28;20623;-90
2023/10/04 16:08:05;;;;;;;21.30;16.23;;;18.70;99.90;;;;;;4964613;28;20477;-89
2023/10/04 16:10:54;;;;;;;12.00;8.80;;;18.70;99.90;;;;;;4968764;28;20543;-89
2023/10/04 16:13:26;;;;;;;8.50;5.90;;;18.70;99.90;;;;;;4978665;28;20478;-90
2023/10/04 16:16:49;;;;;;;6.93;6.17;;;18.70;99.90;;;;;;5111682;23;20529;-89
2023/10/04 16:20:27;;;;;;;5.73;5.10;;;18.60;99.90;;;;;;5044228;28;20543;-88
2023/10/04 16:22:59;;;;;;;8.67;6.37;;;18.60;99.90;;;;;;5043054;28;20478;-87
2023/10/04 16:28:45;;;;;;;;;;;;;;;;;;;;;
2023/10/04 16:34:26;;;;;;;6.60;5.70;;;18.50;99.90;;;;;;5028313;28;20456;-89
2023/10/04 16:37:15;;;;;;;6.50;5.90;;;18.40;99.90;;;;;;5014819;28;20595;-89
2023/10/04 16:40:02;;;;;;;5.63;4.77;;;18.40;99.90;;;;;;5015876;28;20969;-89
2023/10/04 16:42:41;;;;;;;6.07;4.50;;;18.40;99.90;;;;;;5025438;28;20470;-89
2023/10/04 16:45:21;;;;;;;4.37;3.97;;;18.40;99.90;;;;;;5026658;28;20498;-89
2023/10/04 16:48:09;;;;;;;8.83;5.13;;;18.40;99.90;;;;;;5013936;28;20468;-88
2023/10/04 16:53:41;;;;;;;5.73;5.00;;;18.30;99.90;;;;;;4985622;28;20460;-88
2023/10/04 16:56:36;;;;;;;5.77;4.37;;;18.30;99.90;;;;;;5034673;28;20464;-88
2023/10/04 16:59:09;;;;;;;29.33;25.60;;;18.30;99.90;;;;;;5033086;28;20495;-88
2023/10/04 17:01:44;;;;;;;22.43;17.43;;;18.30;99.90;;;;;;5018564;28;20552;-89
2023/10/04 17:08:06;;;;;;;7.20;6.00;;;18.20;99.90;;;;;;5054364;28;20417;-89
2023/10/04 17:16:35;;;;;;;24.40;19.97;;;18.10;99.90;;;;;;5729454;22;20467;-90
2023/10/04 17:22:02;;;;;;;12.50;8.90;;;18.10;99.90;;;;;;5002556;28;20497;-88
2023/10/04 17:24:32;;;;;;;7.53;6.20;;;18.10;99.90;;;;;;5040931;28;20472;-84
2023/10/04 17:27:15;;;;;;;7.07;5.33;;;18.10;99.90;;;;;;5030788;28;20468;-88
2023/10/04 17:32:51;;;;;;;;;;;;;;;;;;;;;
2023/10/04 17:35:25;;;;;;;7.27;4.87;;;18.00;99.90;;;;;;5328382;23;20487;-89
2023/10/04 17:37:57;;;;;;;8.40;5.53;;;18.00;99.90;;;;;;5052300;28;20459;-85
2023/10/04 17:40:25;;;;;;;6.50;5.37;;;18.00;99.90;;;;;;5041409;28;20482;-84
2023/10/04 17:42:57;;;;;;;6.03;4.93;;;18.00;99.90;;;;;;5040671;28;20473;-89
2023/10/04 17:45:30;;;;;;;5.97;4.53;;;18.00;99.90;;;;;;5011740;28;20489;-89
2023/10/04 17:51:57;;;;;;;10.90;6.80;;;18.00;99.90;;;;;;5031200;28;20452;-88
2023/10/04 18:01:00;;;;;;;10.93;7.33;;;17.80;99.90;;;;;;4891564;28;20485;-85
2023/10/04 18:03:42;;;;;;;8.00;7.20;;;17.80;99.90;;;;;;4992202;28;20564;-89
2023/10/04 18:06:14;;;;;;;30.93;21.40;;;17.80;99.90;;;;;;5009517;28;20852;-89
2023/10/04 18:08:44;;;;;;;15.40;11.90;;;17.80;99.90;;;;;;4998549;28;20465;-87
2023/10/04 18:11:42;;;;;;;64.07;50.23;;;17.80;99.90;;;;;;5012489;28;20475;-88
2023/10/04 18:14:33;;;;;;;41.13;31.43;;;17.80;99.90;;;;;;5003261;28;20823;-90
2023/10/04 18:17:22;;;;;;;8.23;7.30;;;17.90;99.90;;;;;;4997657;28;20492;-90
2023/10/04 18:24:32;;;;;;;7.13;5.67;;;17.80;99.90;;;;;;4967387;28;20479;-90
2023/10/04 18:27:20;;;;;;;5.27;4.87;;;17.80;99.90;;;;;;5019168;28;20531;-89
2023/10/04 18:36:56;;;;;;;60.47;46.47;;;17.80;99.90;;;;;;5043846;23;20472;-89
2023/10/04 18:39:28;;;;;;;22.00;16.70;;;17.70;99.90;;;;;;5001016;28;20468;-89
2023/10/04 18:41:59;;;;;;;9.73;7.67;;;17.70;99.90;;;;;;5011735;28;20500;-87
2023/10/04 18:44:48;;;;;;;8.67;5.70;;;17.70;99.90;;;;;;5079168;22;20432;-89
2023/10/04 18:47:26;;;;;;;;;;;;;;;;;;;;;
2023/10/04 18:53:01;;;;;;;69.40;48.10;;;17.60;99.90;;;;;;5026847;28;20470;-88
2023/10/04 18:55:33;;;;;;;12.73;10.30;;;17.60;99.90;;;;;;5036298;28;20467;-90
2023/10/04 18:58:50;;;;;;;9.17;6.60;;;17.60;99.90;;;;;;5002458;28;20472;-89
2023/10/04 19:02:06;;;;;;;;;;;;;;;;;;;;;
2023/10/04 19:07:51;;;;;;;9.60;5.50;;;17.70;99.90;;;;;;4943901;29;20495;-86
2023/10/04 19:13:37;;;;;;;69.00;50.80;;;17.70;99.90;;;;;;4998854;28;20467;-85
2023/10/04 19:20:11;;;;;;;14.40;10.67;;;17.80;99.90;;;;;;4983261;28;20457;-86
2023/10/04 19:25:49;;;;;;;7.40;5.93;;;17.90;99.90;;;;;;4974563;28;20956;-86
2023/10/04 19:28:50;;;;;;;7.50;6.40;;;17.80;99.90;;;;;;5013858;28;20515;-86
2023/10/04 19:31:37;;;;;;;9.57;6.90;;;17.90;99.90;;;;;;5019752;28;20495;-87
2023/10/04 19:34:40;;;;;;;10.87;8.50;;;17.80;99.90;;;;;;5015530;28;20488;-84
2023/10/04 19:37:55;;;;;;;9.33;6.40;;;17.80;99.90;;;;;;5012248;28;20483;-84
2023/10/04 19:40:30;;;;;;;13.87;6.13;;;17.80;99.90;;;;;;4937364;28;20484;-85
2023/10/04 19:43:24;;;;;;;5.23;4.77;;;17.80;99.90;;;;;;4944941;28;20487;-84
2023/10/04 19:46:13;;;;;;;8.00;5.37;;;17.70;99.90;;;;;;4944024;28;20485;-84
2023/10/04 19:49:00;;;;;;;10.13;5.93;;;17.70;99.90;;;;;;4944152;28;20480;-85
2023/10/04 19:51:45;;;;;;;;;;;;;;;;;;;;;
2023/10/04 19:54:31;;;;;;;8.30;4.70;;;17.70;99.90;;;;;;4939283;29;20484;-84
2023/10/04 20:04:25;;;;;;;10.03;5.83;;;17.60;99.90;;;;;;4906401;29;20462;-84
2023/10/04 20:07:03;;;;;;;5.20;4.63;;;17.60;99.90;;;;;;4910392;29;20481;-86
2023/10/04 20:25:47;;;;;;;7.97;5.90;;;17.50;99.90;;;;;;5094681;23;20504;-89
2023/10/04 20:28:17;;;;;;;7.10;5.90;;;17.50;99.90;;;;;;5043723;28;21452;-85
2023/10/04 20:30:49;;;;;;;5.93;5.03;;;17.50;99.90;;;;;;5036471;28;20628;-84